createdAt,value
2018-07-28T00:00:19.239Z,0
2018-07-28T00:01:18.614Z,0
2018-07-28T00:02:18.866Z,0
2018-07-28T00:03:19.116Z,0
2018-07-28T00:04:19.119Z,0
2018-07-28T00:05:19.374Z,0
2018-07-28T00:06:19.122Z,0
2018-07-28T00:07:19.162Z,0
2018-07-28T00:08:19.143Z,0
2018-07-28T00:09:19.124Z,0
2018-07-28T00:10:19.390Z,0
2018-07-28T00:11:19.143Z,0
2018-07-28T00:12:19.416Z,0
2018-07-28T00:13:19.400Z,0
2018-07-28T00:14:18.896Z,0
2018-07-28T00:15:18.906Z,0
2018-07-28T00:16:19.424Z,0
2018-07-28T00:17:18.912Z,0
2018-07-28T00:18:19.170Z,0
2018-07-28T00:19:19.469Z,0
2018-07-28T00:20:19.173Z,0
2018-07-28T00:21:19.173Z,0
2018-07-28T00:22:19.428Z,0
2018-07-28T00:23:18.931Z,0
2018-07-28T00:24:19.449Z,0
2018-07-28T00:25:18.926Z,0
2018-07-28T00:26:19.221Z,0
2018-07-28T00:27:19.458Z,0
2018-07-28T00:28:18.946Z,0
2018-07-28T00:29:18.942Z,0
2018-07-28T00:30:19.191Z,0
2018-07-28T00:31:19.458Z,0
2018-07-28T00:32:19.219Z,0
2018-07-28T00:33:19.458Z,0
2018-07-28T00:34:19.467Z,0
2018-07-28T00:35:19.247Z,0
2018-07-28T00:36:19.476Z,0
2018-07-28T00:37:19.477Z,0
2018-07-28T00:38:19.461Z,0
2018-07-28T00:39:18.713Z,0
2018-07-28T00:40:19.487Z,0
2018-07-28T00:41:19.240Z,0
2018-07-28T00:42:18.971Z,0
2018-07-28T00:43:19.502Z,0
2018-07-28T00:44:19.241Z,0
2018-07-28T00:45:19.520Z,0
2018-07-28T00:46:19.002Z,0
2018-07-28T00:47:18.749Z,0
2018-07-28T00:48:19.517Z,0
2018-07-28T00:49:19.529Z,0
2018-07-28T00:50:19.279Z,0
2018-07-28T00:51:19.538Z,0
2018-07-28T00:52:19.034Z,0
2018-07-28T00:53:19.296Z,0
2018-07-28T00:54:19.298Z,0
2018-07-28T00:55:19.305Z,0
2018-07-28T00:56:19.547Z,0
2018-07-28T00:57:19.289Z,0
2018-07-28T00:58:19.543Z,0
2018-07-28T00:59:19.540Z,0
2018-07-28T01:00:19.111Z,0
2018-07-28T01:01:19.341Z,0
2018-07-28T01:02:19.301Z,0
2018-07-28T01:03:19.318Z,0
2018-07-28T01:04:19.045Z,0
2018-07-28T01:05:19.563Z,0
2018-07-28T01:06:19.335Z,0
2018-07-28T01:07:19.078Z,0
2018-07-28T01:08:19.317Z,0
2018-07-28T01:09:19.337Z,0
2018-07-28T01:10:19.119Z,0
2018-07-28T01:11:19.082Z,0
2018-07-28T01:12:19.602Z,0
2018-07-28T01:13:19.367Z,0
2018-07-28T01:14:18.841Z,0
2018-07-28T01:15:19.510Z,0
2018-07-28T01:16:19.626Z,0
2018-07-28T01:17:19.103Z,0
2018-07-28T01:18:19.383Z,0
2018-07-28T01:19:19.359Z,0
2018-07-28T01:20:19.029Z,0
2018-07-28T01:21:19.371Z,0
2018-07-28T01:22:19.395Z,0
2018-07-28T01:23:19.400Z,0
2018-07-28T01:24:19.402Z,0
2018-07-28T01:25:19.224Z,0
2018-07-28T01:26:19.123Z,0
2018-07-28T01:27:19.665Z,0
2018-07-28T01:28:19.386Z,0
2018-07-28T01:29:19.387Z,0
2018-07-28T01:30:19.514Z,0
2018-07-28T01:31:19.405Z,0
2018-07-28T01:32:19.166Z,0
2018-07-28T01:33:18.897Z,0
2018-07-28T01:34:19.399Z,0
2018-07-28T01:35:19.836Z,0
2018-07-28T01:36:19.436Z,0
2018-07-28T01:37:19.435Z,0
2018-07-28T01:38:18.902Z,0
2018-07-28T01:39:18.944Z,0
2018-07-28T01:40:18.998Z,0
2018-07-28T01:41:19.206Z,0
2018-07-28T01:42:19.170Z,0
2018-07-28T01:43:18.923Z,0
2018-07-28T01:44:19.439Z,0
2018-07-28T01:45:19.897Z,0
2018-07-28T01:46:18.943Z,0
2018-07-28T01:47:19.458Z,0
2018-07-28T01:48:19.455Z,0
2018-07-28T01:49:19.711Z,0
2018-07-28T01:50:19.321Z,0
2018-07-28T01:51:18.957Z,0
2018-07-28T01:52:19.238Z,0
2018-07-28T01:53:19.223Z,0
2018-07-28T01:54:19.230Z,0
2018-07-28T01:55:19.256Z,0
2018-07-28T01:56:18.981Z,0
2018-07-28T01:57:19.751Z,0
2018-07-28T01:58:19.498Z,0
2018-07-28T01:59:19.497Z,0
2018-07-28T02:00:19.157Z,0
2018-07-28T02:01:19.272Z,0
2018-07-28T02:02:19.499Z,0
2018-07-28T02:03:19.019Z,0
2018-07-28T02:04:19.763Z,0
2018-07-28T02:05:19.403Z,0
2018-07-28T02:06:19.271Z,0
2018-07-28T02:07:19.771Z,0
2018-07-28T02:08:19.287Z,0
2018-07-28T02:09:19.522Z,0
2018-07-28T02:10:19.390Z,0
2018-07-28T02:11:19.516Z,0
2018-07-28T02:12:19.780Z,0
2018-07-28T02:13:19.286Z,0
2018-07-28T02:14:19.040Z,0
2018-07-28T02:15:19.610Z,0
2018-07-28T02:16:19.536Z,0
2018-07-28T02:17:19.530Z,0
2018-07-28T02:18:19.040Z,0
2018-07-28T02:19:19.827Z,0
2018-07-28T02:20:19.616Z,0
2018-07-28T02:21:19.591Z,0
2018-07-28T02:22:19.054Z,0
2018-07-28T02:23:19.305Z,0
2018-07-28T02:24:19.837Z,0
2018-07-28T02:25:20.055Z,0
2018-07-28T02:26:19.092Z,0
2018-07-28T02:27:19.584Z,0
2018-07-28T02:28:19.319Z,0
2018-07-28T02:29:19.861Z,0
2018-07-28T02:30:19.588Z,0
2018-07-28T02:31:19.400Z,0
2018-07-28T02:32:19.090Z,0
2018-07-28T02:33:19.108Z,0
2018-07-28T02:34:19.597Z,0
2018-07-28T02:35:19.715Z,0
2018-07-28T02:36:19.869Z,0
2018-07-28T02:37:19.609Z,0
2018-07-28T02:38:19.359Z,0
2018-07-28T02:39:19.394Z,0
2018-07-28T02:40:19.484Z,0
2018-07-28T02:41:19.605Z,0
2018-07-28T02:42:19.618Z,0
2018-07-28T02:43:19.894Z,0
2018-07-28T02:44:19.662Z,0
2018-07-28T02:45:19.807Z,0
2018-07-28T02:46:19.113Z,0
2018-07-28T02:47:19.628Z,0
2018-07-28T02:48:19.646Z,0
2018-07-28T02:49:19.637Z,0
2018-07-28T02:50:19.600Z,0
2018-07-28T02:51:19.922Z,0
2018-07-28T02:52:19.416Z,0
2018-07-28T02:53:19.685Z,0
2018-07-28T02:54:19.666Z,0
2018-07-28T02:55:19.478Z,0
2018-07-28T02:56:19.421Z,0
2018-07-28T02:57:19.682Z,0
2018-07-28T02:58:19.673Z,0
2018-07-28T02:59:19.408Z,0
2018-07-28T03:00:20.505Z,0
2018-07-28T03:01:19.678Z,0
2018-07-28T03:02:19.682Z,0
2018-07-28T03:03:19.954Z,0
2018-07-28T03:04:19.956Z,0
2018-07-28T03:05:19.488Z,0
2018-07-28T03:06:19.678Z,0
2018-07-28T03:07:19.691Z,0
2018-07-28T03:08:19.452Z,0
2018-07-28T03:09:19.441Z,0
2018-07-28T03:10:20.224Z,0
2018-07-28T03:11:19.946Z,0
2018-07-28T03:12:19.456Z,0
2018-07-28T03:13:19.462Z,0
2018-07-28T03:14:19.715Z,0
2018-07-28T03:15:19.727Z,0
2018-07-28T03:16:19.480Z,0
2018-07-28T03:17:19.988Z,0
2018-07-28T03:18:19.725Z,0
2018-07-28T03:19:20.003Z,0
2018-07-28T03:20:19.722Z,0
2018-07-28T03:21:19.991Z,0
2018-07-28T03:22:19.488Z,0
2018-07-28T03:23:19.751Z,0
2018-07-28T03:24:19.779Z,0
2018-07-28T03:25:19.871Z,0
2018-07-28T03:26:19.524Z,0
2018-07-28T03:27:19.499Z,0
2018-07-28T03:28:19.517Z,0
2018-07-28T03:29:19.736Z,0
2018-07-28T03:30:19.812Z,0
2018-07-28T03:31:20.004Z,0
2018-07-28T03:32:20.087Z,0
2018-07-28T03:33:19.551Z,0
2018-07-28T03:34:19.542Z,0
2018-07-28T03:35:19.690Z,0
2018-07-28T03:36:19.757Z,0
2018-07-28T03:37:20.032Z,0
2018-07-28T03:38:19.263Z,0
2018-07-28T03:39:19.795Z,0
2018-07-28T03:40:19.604Z,0
2018-07-28T03:41:19.790Z,0
2018-07-28T03:42:19.534Z,0
2018-07-28T03:43:19.797Z,0
2018-07-28T03:44:19.531Z,0
2018-07-28T03:45:19.612Z,5
2018-07-28T03:46:19.781Z,5
2018-07-28T03:47:19.288Z,5
2018-07-28T03:48:19.803Z,5
2018-07-28T03:49:20.383Z,5
2018-07-28T03:50:19.964Z,5
2018-07-28T03:51:19.553Z,5
2018-07-28T03:52:19.798Z,5
2018-07-28T03:53:19.605Z,5
2018-07-28T03:54:19.615Z,10
2018-07-28T03:55:19.821Z,10
2018-07-28T03:56:19.548Z,10
2018-07-28T03:57:19.564Z,10
2018-07-28T03:58:19.843Z,10
2018-07-28T03:59:19.571Z,10
2018-07-28T04:00:19.738Z,15
2018-07-28T04:01:19.576Z,15
2018-07-28T04:02:19.816Z,15
2018-07-28T04:03:19.907Z,15
2018-07-28T04:04:20.618Z,15
2018-07-28T04:05:19.697Z,20
2018-07-28T04:06:19.861Z,20
2018-07-28T04:07:19.851Z,20
2018-07-28T04:08:19.867Z,20
2018-07-28T04:09:19.619Z,25
2018-07-28T04:10:19.339Z,25
2018-07-28T04:11:20.121Z,25
2018-07-28T04:12:19.848Z,25
2018-07-28T04:13:19.354Z,30
2018-07-28T04:14:19.929Z,30
2018-07-28T04:15:19.773Z,30
2018-07-28T04:16:20.112Z,35
2018-07-28T04:17:19.611Z,35
2018-07-28T04:18:19.889Z,35
2018-07-28T04:19:19.634Z,40
2018-07-28T04:20:20.136Z,40
2018-07-28T04:21:19.877Z,40
2018-07-28T04:22:19.875Z,45
2018-07-28T04:23:19.115Z,45
2018-07-28T04:24:19.120Z,50
2018-07-28T04:25:19.768Z,50
2018-07-28T04:26:19.659Z,55
2018-07-28T04:27:19.654Z,55
2018-07-28T04:28:19.902Z,65
2018-07-28T04:29:19.430Z,75
2018-07-28T04:30:19.668Z,75
2018-07-28T04:31:19.641Z,85
2018-07-28T04:32:19.665Z,85
2018-07-28T04:33:19.399Z,90
2018-07-28T04:34:19.915Z,90
2018-07-28T04:35:20.254Z,100
2018-07-28T04:36:19.645Z,110
2018-07-28T04:37:20.116Z,110
2018-07-28T04:38:19.948Z,120
2018-07-28T04:39:19.969Z,125
2018-07-28T04:40:20.396Z,130
2018-07-28T04:41:19.693Z,135
2018-07-28T04:42:20.180Z,145
2018-07-28T04:43:19.954Z,160
2018-07-28T04:44:19.696Z,160
2018-07-28T04:45:19.525Z,165
2018-07-28T04:46:19.203Z,170
2018-07-28T04:47:19.442Z,175
2018-07-28T04:48:19.966Z,180
2018-07-28T04:49:20.238Z,180
2018-07-28T04:50:19.529Z,185
2018-07-28T04:51:19.990Z,190
2018-07-28T04:52:19.486Z,195
2018-07-28T04:53:20.260Z,195
2018-07-28T04:54:19.733Z,200
2018-07-28T04:55:19.441Z,210
2018-07-28T04:56:20.019Z,215
2018-07-28T04:57:19.489Z,215
2018-07-28T04:58:19.509Z,215
2018-07-28T04:59:19.759Z,215
2018-07-28T05:00:20.276Z,220
2018-07-28T05:01:20.289Z,225
2018-07-28T05:02:19.267Z,230
2018-07-28T05:03:19.765Z,230
2018-07-28T05:04:19.780Z,240
2018-07-28T05:05:19.712Z,245
2018-07-28T05:06:19.809Z,250
2018-07-28T05:07:20.313Z,255
2018-07-28T05:08:19.818Z,255
2018-07-28T05:09:20.391Z,265
2018-07-28T05:10:20.557Z,275
2018-07-28T05:11:19.601Z,285
2018-07-28T05:12:20.151Z,290
2018-07-28T05:13:19.908Z,295
2018-07-28T05:14:20.365Z,300
2018-07-28T05:15:20.365Z,300
2018-07-28T05:16:19.863Z,305
2018-07-28T05:17:20.142Z,305
2018-07-28T05:18:19.607Z,305
2018-07-28T05:19:20.156Z,305
2018-07-28T05:20:19.395Z,305
2018-07-28T05:21:19.378Z,305
2018-07-28T05:22:19.707Z,300
2018-07-28T05:23:19.656Z,300
2018-07-28T05:24:19.919Z,300
2018-07-28T05:25:20.175Z,300
2018-07-28T05:26:19.917Z,305
2018-07-28T05:27:19.958Z,305
2018-07-28T05:28:19.925Z,315
2018-07-28T05:29:19.680Z,315
2018-07-28T05:30:20.035Z,320
2018-07-28T05:31:20.209Z,315
2018-07-28T05:32:19.972Z,315
2018-07-28T05:33:20.226Z,320
2018-07-28T05:34:20.252Z,325
2018-07-28T05:35:20.396Z,315
2018-07-28T05:36:20.530Z,300
2018-07-28T05:37:20.976Z,280
2018-07-28T05:38:20.252Z,225
2018-07-28T05:39:20.260Z,150
2018-07-28T05:40:20.701Z,145
2018-07-28T05:41:19.774Z,150
2018-07-28T05:42:19.815Z,135
2018-07-28T05:43:20.549Z,140
2018-07-28T05:44:20.043Z,145
2018-07-28T05:45:20.085Z,160
2018-07-28T05:46:19.807Z,170
2018-07-28T05:47:20.565Z,165
2018-07-28T05:48:20.151Z,160
2018-07-28T05:49:20.589Z,185
2018-07-28T05:50:20.593Z,220
2018-07-28T05:51:20.411Z,250
2018-07-28T05:52:19.598Z,260
2018-07-28T05:53:19.844Z,290
2018-07-28T05:54:20.120Z,335
2018-07-28T05:55:20.361Z,360
2018-07-28T05:56:20.108Z,370
2018-07-28T05:57:19.866Z,370
2018-07-28T05:58:20.135Z,375
2018-07-28T05:59:20.402Z,380
2018-07-28T06:00:20.418Z,380
2018-07-28T06:01:20.400Z,375
2018-07-28T06:02:20.812Z,375
2018-07-28T06:03:20.169Z,370
2018-07-28T06:04:20.169Z,365
2018-07-28T06:05:20.182Z,370
2018-07-28T06:06:20.197Z,360
2018-07-28T06:07:20.709Z,360
2018-07-28T06:08:19.944Z,360
2018-07-28T06:09:20.213Z,365
2018-07-28T06:10:20.220Z,360
2018-07-28T06:11:20.470Z,365
2018-07-28T06:12:19.999Z,370
2018-07-28T06:13:20.748Z,370
2018-07-28T06:14:20.851Z,375
2018-07-28T06:15:20.529Z,375
2018-07-28T06:16:20.786Z,380
2018-07-28T06:17:20.254Z,380
2018-07-28T06:18:20.526Z,380
2018-07-28T06:19:20.344Z,385
2018-07-28T06:20:20.664Z,390
2018-07-28T06:21:20.797Z,400
2018-07-28T06:22:20.803Z,405
2018-07-28T06:23:20.329Z,405
2018-07-28T06:24:20.858Z,400
2018-07-28T06:25:20.837Z,405
2018-07-28T06:26:20.841Z,405
2018-07-28T06:27:20.078Z,405
2018-07-28T06:28:20.619Z,410
2018-07-28T06:29:20.697Z,415
2018-07-28T06:30:20.098Z,420
2018-07-28T06:31:20.368Z,405
2018-07-28T06:32:20.914Z,315
2018-07-28T06:33:20.406Z,350
2018-07-28T06:34:20.182Z,425
2018-07-28T06:35:20.417Z,440
2018-07-28T06:36:19.896Z,455
2018-07-28T06:37:20.694Z,470
2018-07-28T06:38:20.735Z,325
2018-07-28T06:39:20.431Z,415
2018-07-28T06:40:20.206Z,410
2018-07-28T06:41:20.474Z,325
2018-07-28T06:42:20.721Z,355
2018-07-28T06:43:20.463Z,410
2018-07-28T06:44:21.013Z,425
2018-07-28T06:45:20.742Z,410
2018-07-28T06:46:19.998Z,370
2018-07-28T06:47:20.314Z,395
2018-07-28T06:48:20.510Z,365
2018-07-28T06:49:20.531Z,505
2018-07-28T06:50:20.520Z,495
2018-07-28T06:51:20.788Z,485
2018-07-28T06:52:20.302Z,425
2018-07-28T06:53:20.834Z,475
2018-07-28T06:54:20.311Z,500
2018-07-28T06:55:20.839Z,505
2018-07-28T06:56:20.828Z,505
2018-07-28T06:57:20.833Z,495
2018-07-28T06:58:20.857Z,490
2018-07-28T06:59:20.865Z,350
2018-07-28T07:00:20.362Z,300
2018-07-28T07:01:21.139Z,285
2018-07-28T07:02:20.882Z,275
2018-07-28T07:03:20.877Z,250
2018-07-28T07:04:20.374Z,230
2018-07-28T07:05:20.911Z,215
2018-07-28T07:06:20.698Z,200
2018-07-28T07:07:21.191Z,185
2018-07-28T07:08:21.235Z,175
2018-07-28T07:09:20.694Z,170
2018-07-28T07:10:20.951Z,160
2018-07-28T07:11:20.208Z,160
2018-07-28T07:12:20.966Z,160
2018-07-28T07:13:20.966Z,165
2018-07-28T07:14:20.719Z,170
2018-07-28T07:15:21.020Z,175
2018-07-28T07:16:21.010Z,185
2018-07-28T07:17:20.754Z,185
2018-07-28T07:18:21.028Z,185
2018-07-28T07:19:20.770Z,185
2018-07-28T07:20:21.042Z,190
2018-07-28T07:21:20.517Z,185
2018-07-28T07:22:20.804Z,190
2018-07-28T07:23:21.045Z,185
2018-07-28T07:24:21.061Z,185
2018-07-28T07:25:21.305Z,195
2018-07-28T07:26:21.312Z,200
2018-07-28T07:27:21.087Z,205
2018-07-28T07:28:21.075Z,210
2018-07-28T07:29:20.838Z,215
2018-07-28T07:30:20.916Z,220
2018-07-28T07:31:20.843Z,225
2018-07-28T07:32:20.854Z,225
2018-07-28T07:33:20.877Z,225
2018-07-28T07:34:21.119Z,235
2018-07-28T07:35:21.134Z,230
2018-07-28T07:36:21.022Z,230
2018-07-28T07:37:21.133Z,225
2018-07-28T07:38:21.135Z,235
2018-07-28T07:39:21.408Z,230
2018-07-28T07:40:20.910Z,230
2018-07-28T07:41:21.162Z,240
2018-07-28T07:42:21.414Z,240
2018-07-28T07:43:21.417Z,250
2018-07-28T07:44:20.915Z,250
2018-07-28T07:45:21.432Z,260
2018-07-28T07:46:21.451Z,260
2018-07-28T07:47:21.943Z,265
2018-07-28T07:48:21.209Z,270
2018-07-28T07:49:21.760Z,275
2018-07-28T07:50:21.212Z,290
2018-07-28T07:51:21.477Z,285
2018-07-28T07:52:21.491Z,275
2018-07-28T07:53:20.966Z,265
2018-07-28T07:54:20.965Z,250
2018-07-28T07:55:21.538Z,230
2018-07-28T07:56:21.250Z,210
2018-07-28T07:57:21.238Z,190
2018-07-28T07:58:21.236Z,170
2018-07-28T07:59:21.256Z,160
2018-07-28T08:00:20.754Z,150
2018-07-28T08:01:21.044Z,140
2018-07-28T08:02:21.272Z,130
2018-07-28T08:03:21.565Z,130
2018-07-28T08:04:23.151Z,120
2018-07-28T08:05:21.291Z,115
2018-07-28T08:06:21.699Z,110
2018-07-28T08:07:21.559Z,105
2018-07-28T08:08:21.567Z,100
2018-07-28T08:09:21.561Z,95
2018-07-28T08:10:21.583Z,95
2018-07-28T08:11:21.359Z,95
2018-07-28T08:12:21.088Z,95
2018-07-28T08:13:20.857Z,95
2018-07-28T08:14:21.623Z,95
2018-07-28T08:15:21.360Z,95
2018-07-28T08:16:21.359Z,90
2018-07-28T08:17:21.375Z,90
2018-07-28T08:18:21.632Z,90
2018-07-28T08:19:21.634Z,90
2018-07-28T08:20:21.139Z,85
2018-07-28T08:21:21.632Z,85
2018-07-28T08:22:21.404Z,85
2018-07-28T08:23:21.397Z,80
2018-07-28T08:24:21.671Z,80
2018-07-28T08:25:21.397Z,75
2018-07-28T08:26:21.187Z,75
2018-07-28T08:27:21.423Z,75
2018-07-28T08:28:20.909Z,80
2018-07-28T08:29:21.684Z,85
2018-07-28T08:30:21.419Z,90
2018-07-28T08:31:21.441Z,95
2018-07-28T08:32:21.715Z,105
2018-07-28T08:33:21.847Z,110
2018-07-28T08:34:20.931Z,115
2018-07-28T08:35:21.191Z,130
2018-07-28T08:36:21.470Z,145
2018-07-28T08:37:21.210Z,155
2018-07-28T08:38:21.744Z,165
2018-07-28T08:39:21.469Z,170
2018-07-28T08:40:21.754Z,175
2018-07-28T08:41:21.491Z,175
2018-07-28T08:42:20.979Z,175
2018-07-28T08:43:21.745Z,180
2018-07-28T08:44:21.507Z,195
2018-07-28T08:45:21.511Z,205
2018-07-28T08:46:21.259Z,215
2018-07-28T08:47:21.775Z,230
2018-07-28T08:48:21.778Z,240
2018-07-28T08:49:22.620Z,250
2018-07-28T08:50:21.545Z,270
2018-07-28T08:51:21.270Z,280
2018-07-28T08:52:21.546Z,290
2018-07-28T08:53:21.516Z,295
2018-07-28T08:54:21.288Z,295
2018-07-28T08:55:21.036Z,300
2018-07-28T08:56:21.560Z,300
2018-07-28T08:57:21.308Z,305
2018-07-28T08:58:21.832Z,315
2018-07-28T08:59:21.595Z,310
2018-07-28T09:00:21.072Z,300
2018-07-28T09:01:21.832Z,300
2018-07-28T09:02:21.338Z,300
2018-07-28T09:03:21.601Z,305
2018-07-28T09:04:23.194Z,305
2018-07-28T09:05:21.335Z,310
2018-07-28T09:06:21.722Z,305
2018-07-28T09:07:21.616Z,305
2018-07-28T09:08:21.357Z,300
2018-07-28T09:09:21.629Z,300
2018-07-28T09:10:21.636Z,295
2018-07-28T09:11:21.912Z,295
2018-07-28T09:12:21.530Z,285
2018-07-28T09:13:21.130Z,285
2018-07-28T09:14:21.648Z,290
2018-07-28T09:15:21.465Z,285
2018-07-28T09:16:21.949Z,285
2018-07-28T09:17:21.414Z,290
2018-07-28T09:18:21.414Z,295
2018-07-28T09:19:21.944Z,310
2018-07-28T09:20:21.678Z,335
2018-07-28T09:21:21.713Z,350
2018-07-28T09:22:21.223Z,375
2018-07-28T09:23:22.062Z,400
2018-07-28T09:24:21.765Z,425
2018-07-28T09:25:21.191Z,405
2018-07-28T09:26:21.990Z,415
2018-07-28T09:27:21.717Z,445
2018-07-28T09:28:21.727Z,440
2018-07-28T09:29:21.481Z,495
2018-07-28T09:30:22.315Z,480
2018-07-28T09:31:21.504Z,435
2018-07-28T09:32:21.754Z,455
2018-07-28T09:33:21.765Z,420
2018-07-28T09:34:20.985Z,420
2018-07-28T09:35:21.517Z,420
2018-07-28T09:36:21.535Z,420
2018-07-28T09:37:21.794Z,430
2018-07-28T09:38:22.106Z,430
2018-07-28T09:39:21.831Z,425
2018-07-28T09:40:21.586Z,425
2018-07-28T09:41:21.594Z,410
2018-07-28T09:42:21.563Z,395
2018-07-28T09:43:21.568Z,380
2018-07-28T09:44:21.843Z,365
2018-07-28T09:45:21.585Z,355
2018-07-28T09:46:21.996Z,340
2018-07-28T09:47:21.595Z,330
2018-07-28T09:48:21.880Z,325
2018-07-28T09:49:22.121Z,325
2018-07-28T09:50:21.605Z,330
2018-07-28T09:51:21.624Z,330
2018-07-28T09:52:21.630Z,330
2018-07-28T09:53:22.149Z,330
2018-07-28T09:54:21.927Z,330
2018-07-28T09:55:22.201Z,325
2018-07-28T09:56:22.378Z,325
2018-07-28T09:57:21.661Z,320
2018-07-28T09:58:21.668Z,315
2018-07-28T09:59:21.685Z,315
2018-07-28T10:00:21.918Z,315
2018-07-28T10:01:22.180Z,320
2018-07-28T10:02:22.170Z,330
2018-07-28T10:03:22.260Z,335
2018-07-28T10:04:21.159Z,350
2018-07-28T10:05:22.839Z,370
2018-07-28T10:06:22.198Z,395
2018-07-28T10:07:21.738Z,420
2018-07-28T10:08:22.021Z,445
2018-07-28T10:09:21.752Z,460
2018-07-28T10:10:21.722Z,475
2018-07-28T10:11:21.239Z,445
2018-07-28T10:12:21.480Z,460
2018-07-28T10:13:21.744Z,445
2018-07-28T10:14:21.746Z,425
2018-07-28T10:15:22.583Z,400
2018-07-28T10:16:22.749Z,385
2018-07-28T10:17:22.041Z,365
2018-07-28T10:18:22.047Z,355
2018-07-28T10:19:22.038Z,345
2018-07-28T10:20:22.304Z,340
2018-07-28T10:21:21.579Z,335
2018-07-28T10:22:22.060Z,340
2018-07-28T10:23:21.819Z,345
2018-07-28T10:24:21.828Z,350
2018-07-28T10:25:21.826Z,355
2018-07-28T10:26:21.587Z,365
2018-07-28T10:27:22.132Z,405
2018-07-28T10:28:21.831Z,425
2018-07-28T10:29:22.411Z,430
2018-07-28T10:30:22.218Z,430
2018-07-28T10:31:21.884Z,405
2018-07-28T10:32:22.242Z,395
2018-07-28T10:33:22.147Z,390
2018-07-28T10:34:22.388Z,385
2018-07-28T10:35:22.697Z,385
2018-07-28T10:36:22.612Z,395
2018-07-28T10:37:22.401Z,405
2018-07-28T10:38:21.893Z,400
2018-07-28T10:39:21.915Z,405
2018-07-28T10:40:22.201Z,430
2018-07-28T10:41:22.245Z,425
2018-07-28T10:42:22.180Z,440
2018-07-28T10:43:22.185Z,410
2018-07-28T10:44:22.182Z,395
2018-07-28T10:45:21.692Z,390
2018-07-28T10:46:21.701Z,390
2018-07-28T10:47:22.072Z,390
2018-07-28T10:48:22.507Z,385
2018-07-28T10:49:22.246Z,385
2018-07-28T10:50:21.767Z,390
2018-07-28T10:51:22.252Z,400
2018-07-28T10:52:22.514Z,415
2018-07-28T10:53:22.273Z,415
2018-07-28T10:54:22.386Z,420
2018-07-28T10:55:22.541Z,420
2018-07-28T10:56:22.276Z,415
2018-07-28T10:57:22.575Z,415
2018-07-28T10:58:22.403Z,410
2018-07-28T10:59:22.555Z,410
2018-07-28T11:00:22.569Z,410
2018-07-28T11:01:22.107Z,410
2018-07-28T11:02:22.086Z,410
2018-07-28T11:03:22.087Z,405
2018-07-28T11:04:22.077Z,410
2018-07-28T11:05:23.140Z,405
2018-07-28T11:06:22.117Z,400
2018-07-28T11:07:22.121Z,390
2018-07-28T11:08:22.120Z,405
2018-07-28T11:09:22.334Z,410
2018-07-28T11:10:22.144Z,395
2018-07-28T11:11:22.635Z,390
2018-07-28T11:12:22.401Z,400
2018-07-28T11:13:22.448Z,420
2018-07-28T11:14:21.891Z,385
2018-07-28T11:15:22.152Z,330
2018-07-28T11:16:22.441Z,325
2018-07-28T11:17:22.481Z,335
2018-07-28T11:18:21.929Z,325
2018-07-28T11:19:22.441Z,310
2018-07-28T11:20:22.499Z,315
2018-07-28T11:21:22.204Z,335
2018-07-28T11:22:22.733Z,375
2018-07-28T11:23:22.228Z,415
2018-07-28T11:24:22.489Z,430
2018-07-28T11:25:22.493Z,465
2018-07-28T11:26:22.876Z,450
2018-07-28T11:27:22.245Z,430
2018-07-28T11:28:22.765Z,450
2018-07-28T11:29:22.511Z,455
2018-07-28T11:30:22.037Z,410
2018-07-28T11:31:22.528Z,430
2018-07-28T11:32:22.537Z,430
2018-07-28T11:33:22.698Z,410
2018-07-28T11:34:22.534Z,410
2018-07-28T11:35:22.357Z,405
2018-07-28T11:36:22.815Z,400
2018-07-28T11:37:22.589Z,400
2018-07-28T11:38:22.314Z,390
2018-07-28T11:39:22.823Z,400
2018-07-28T11:40:22.331Z,425
2018-07-28T11:41:22.846Z,500
2018-07-28T11:42:22.340Z,440
2018-07-28T11:43:22.621Z,440
2018-07-28T11:44:22.375Z,480
2018-07-28T11:45:22.457Z,435
2018-07-28T11:46:22.146Z,405
2018-07-28T11:47:22.648Z,425
2018-07-28T11:48:22.393Z,390
2018-07-28T11:49:22.666Z,410
2018-07-28T11:50:22.664Z,390
2018-07-28T11:51:22.605Z,385
2018-07-28T11:52:22.411Z,405
2018-07-28T11:53:22.733Z,415
2018-07-28T11:54:22.208Z,360
2018-07-28T11:55:22.949Z,355
2018-07-28T11:56:22.725Z,355
2018-07-28T11:57:22.495Z,345
2018-07-28T11:58:22.422Z,350
2018-07-28T11:59:22.476Z,355
2018-07-28T12:00:22.754Z,360
2018-07-28T12:01:22.737Z,385
2018-07-28T12:02:22.471Z,380
2018-07-28T12:03:22.246Z,380
2018-07-28T12:04:22.268Z,385
2018-07-28T12:05:22.525Z,400
2018-07-28T12:06:22.514Z,390
2018-07-28T12:07:22.043Z,395
2018-07-28T12:08:22.293Z,400
2018-07-28T12:09:23.090Z,410
2018-07-28T12:10:22.545Z,390
2018-07-28T12:11:22.863Z,390
2018-07-28T12:12:22.566Z,380
2018-07-28T12:13:22.824Z,385
2018-07-28T12:14:23.103Z,390
2018-07-28T12:15:22.600Z,395
2018-07-28T12:16:22.841Z,395
2018-07-28T12:17:23.127Z,400
2018-07-28T12:18:23.208Z,395
2018-07-28T12:19:22.647Z,390
2018-07-28T12:20:22.650Z,400
2018-07-28T12:21:22.963Z,400
2018-07-28T12:22:23.171Z,400
2018-07-28T12:23:22.661Z,400
2018-07-28T12:24:22.656Z,395
2018-07-28T12:25:22.931Z,405
2018-07-28T12:26:22.966Z,395
2018-07-28T12:27:22.972Z,395
2018-07-28T12:28:22.983Z,405
2018-07-28T12:29:22.734Z,360
2018-07-28T12:30:22.964Z,355
2018-07-28T12:31:22.989Z,395
2018-07-28T12:32:22.727Z,385
2018-07-28T12:33:22.469Z,365
2018-07-28T12:34:22.507Z,290
2018-07-28T12:35:22.235Z,265
2018-07-28T12:36:23.033Z,250
2018-07-28T12:37:23.020Z,245
2018-07-28T12:38:23.294Z,245
2018-07-28T12:39:22.780Z,240
2018-07-28T12:40:23.291Z,220
2018-07-28T12:41:22.800Z,195
2018-07-28T12:42:23.053Z,175
2018-07-28T12:43:22.545Z,150
2018-07-28T12:44:22.819Z,130
2018-07-28T12:45:23.081Z,115
2018-07-28T12:46:22.852Z,105
2018-07-28T12:47:22.617Z,95
2018-07-28T12:48:22.860Z,95
2018-07-28T12:49:22.924Z,90
2018-07-28T12:50:22.612Z,85
2018-07-28T12:51:23.112Z,80
2018-07-28T12:52:23.127Z,70
2018-07-28T12:53:23.137Z,60
2018-07-28T12:54:23.173Z,55
2018-07-28T12:55:23.827Z,50
2018-07-28T12:56:23.252Z,50
2018-07-28T12:57:22.903Z,50
2018-07-28T12:58:22.934Z,55
2018-07-28T12:59:23.194Z,65
2018-07-28T13:00:23.188Z,90
2018-07-28T13:01:22.685Z,90
2018-07-28T13:02:23.557Z,100
2018-07-28T13:03:22.498Z,100
2018-07-28T13:04:23.236Z,105
2018-07-28T13:05:23.381Z,105
2018-07-28T13:06:24.302Z,115
2018-07-28T13:07:23.254Z,135
2018-07-28T13:08:23.296Z,150
2018-07-28T13:09:22.965Z,165
2018-07-28T13:10:23.838Z,245
2018-07-28T13:11:23.537Z,220
2018-07-28T13:12:23.321Z,285
2018-07-28T13:13:23.311Z,250
2018-07-28T13:14:23.302Z,295
2018-07-28T13:15:23.599Z,290
2018-07-28T13:16:23.023Z,275
2018-07-28T13:17:23.314Z,280
2018-07-28T13:18:23.311Z,270
2018-07-28T13:19:23.331Z,275
2018-07-28T13:20:23.576Z,290
2018-07-28T13:21:23.328Z,315
2018-07-28T13:22:23.073Z,330
2018-07-28T13:23:23.078Z,335
2018-07-28T13:24:23.331Z,360
2018-07-28T13:25:23.073Z,355
2018-07-28T13:26:23.341Z,370
2018-07-28T13:27:23.603Z,355
2018-07-28T13:28:22.834Z,380
2018-07-28T13:29:22.848Z,385
2018-07-28T13:30:23.103Z,375
2018-07-28T13:31:23.369Z,400
2018-07-28T13:32:23.118Z,355
2018-07-28T13:33:23.148Z,355
2018-07-28T13:34:22.632Z,385
2018-07-28T13:35:23.333Z,375
2018-07-28T13:36:23.963Z,350
2018-07-28T13:37:23.419Z,325
2018-07-28T13:38:23.193Z,315
2018-07-28T13:39:23.185Z,325
2018-07-28T13:40:23.170Z,315
2018-07-28T13:41:23.700Z,280
2018-07-28T13:42:23.721Z,270
2018-07-28T13:43:23.739Z,290
2018-07-28T13:44:23.444Z,320
2018-07-28T13:45:23.227Z,335
2018-07-28T13:46:23.210Z,335
2018-07-28T13:47:23.714Z,330
2018-07-28T13:48:23.465Z,345
2018-07-28T13:49:23.228Z,300
2018-07-28T13:50:22.972Z,300
2018-07-28T13:51:23.485Z,290
2018-07-28T13:52:23.487Z,285
2018-07-28T13:53:23.735Z,310
2018-07-28T13:54:23.784Z,310
2018-07-28T13:55:23.766Z,290
2018-07-28T13:56:23.270Z,275
2018-07-28T13:57:23.507Z,260
2018-07-28T13:58:23.797Z,255
2018-07-28T13:59:23.611Z,255
2018-07-28T14:00:23.852Z,275
2018-07-28T14:01:23.058Z,280
2018-07-28T14:02:23.795Z,285
2018-07-28T14:03:22.776Z,275
2018-07-28T14:04:23.349Z,260